Time;durP1;ratioP1;P1;durP2;ratioP2;P2;SDS_P1;SDS_P2;PMS_P1;PMS_P2;Temp;Humidity;BMP_temperature;BMP_pressure;BME280_temperature;BME280_humidity;BME280_pressure;Samples;Min_cycle;Max_cycle;Signal;HPM_P1;HPM_P2
2021/11/30 00:04:11;;;;;;;5.13;1.70;;;;;;;3.57;100.00;100848.06;10592704;27;20619;-84
2021/11/30 00:14:37;;;;;;;6.70;2.40;;;;;;;3.52;100.00;100821.44;10591874;27;20486;-84
2021/11/30 00:19:39;;;;;;;6.40;3.60;;;;;;;3.52;100.00;100811.22;10579279;28;20044;-86
2021/11/30 00:24:42;;;;;;;7.53;4.32;;;;;;;3.46;100.00;100808.41;10584596;27;20055;-85
2021/11/30 00:29:47;;;;;;;8.13;3.97;;;;;;;3.47;100.00;100791.38;10577418;28;20047;-86
2021/11/30 00:34:48;;;;;;;7.03;4.53;;;;;;;3.41;100.00;100795.41;10579496;28;20052;-85
2021/11/30 00:39:50;;;;;;;12.82;4.95;;;;;;;3.38;100.00;100779.91;10580452;28;20039;-85
2021/11/30 00:44:53;;;;;;;11.57;4.53;;;;;;;3.33;100.00;100767.75;10604763;27;20051;-83
2021/11/30 00:49:58;;;;;;;18.30;5.53;;;;;;;3.36;100.00;100758.53;10578896;27;20055;-84
2021/11/30 00:54:59;;;;;;;9.48;4.97;;;;;;;3.37;100.00;100733.84;10592626;27;20051;-85
2021/11/30 01:00:01;;;;;;;9.82;4.15;;;;;;;3.34;100.00;100732.03;10586525;27;20035;-85
2021/11/30 01:05:05;;;;;;;8.38;4.40;;;;;;;3.26;100.00;100720.63;10581247;27;20074;-84
2021/11/30 01:10:11;;;;;;;9.18;3.47;;;;;;;3.36;100.00;100732.09;10590418;27;20048;-84
2021/11/30 01:15:17;;;;;;;7.07;4.47;;;;;;;3.35;100.00;100738.91;10579181;28;20067;-84
2021/11/30 01:20:19;;;;;;;14.10;4.43;;;;;;;3.36;100.00;100740.66;10578522;28;20051;-83
2021/11/30 01:25:21;;;;;;;6.93;4.07;;;;;;;3.31;100.00;100738.72;10588695;27;20055;-83
2021/11/30 01:30:23;;;;;;;7.00;2.92;;;;;;;3.23;100.00;100751.13;10582838;27;20059;-85
2021/11/30 01:35:24;;;;;;;3.88;3.13;;;;;;;3.12;100.00;100739.59;10577728;28;20047;-83
2021/11/30 01:40:28;;;;;;;6.20;3.47;;;;;;;3.03;100.00;100727.31;10603446;27;20091;-84
2021/11/30 01:50:43;;;;;;;8.60;4.82;;;;;;;2.88;100.00;100684.06;10578218;28;20139;-83
2021/11/30 01:55:46;;;;;;;9.27;4.63;;;;;;;2.85;100.00;100675.44;10586310;28;20054;-84
2021/11/30 02:00:48;;;;;;;8.88;4.75;;;;;;;2.78;100.00;100670.84;10586042;28;20050;-84
2021/11/30 02:05:50;;;;;;;12.65;5.95;;;;;;;2.73;100.00;100652.78;10570482;28;20066;-82
2021/11/30 02:10:55;;;;;;;15.75;7.40;;;;;;;2.65;100.00;100649.88;10578142;28;20043;-83
2021/11/30 02:15:59;;;;;;;18.52;7.18;;;;;;;2.60;100.00;100651.38;10584929;28;20278;-82
2021/11/30 02:21:04;;;;;;;20.70;8.85;;;;;;;2.56;100.00;100644.41;10586954;28;20049;-82
2021/11/30 02:26:10;;;;;;;26.60;10.65;;;;;;;2.56;100.00;100623.09;10573689;28;20052;-82
2021/11/30 02:31:15;;;;;;;17.95;9.18;;;;;;;2.55;100.00;100608.56;10577483;28;20050;-82
2021/11/30 02:36:47;;;;;;;14.90;6.63;;;;;;;2.53;100.00;100589.78;10575943;28;20060;-83
2021/11/30 02:41:51;;;;;;;12.50;7.15;;;;;;;2.52;100.00;100575.25;10593429;27;20050;-78
2021/11/30 02:46:59;;;;;;;21.73;9.02;;;;;;;2.52;100.00;100560.81;10584151;28;20482;-77
2021/11/30 02:52:11;;;;;;;17.33;6.82;;;;;;;2.55;100.00;100554.94;10594182;27;20376;-78
2021/11/30 02:57:15;;;;;;;9.70;6.40;;;;;;;2.57;100.00;100541.47;10588555;27;20059;-77
2021/11/30 03:02:19;;;;;;;18.15;8.18;;;;;;;2.61;100.00;100527.16;10605283;27;20355;-77
2021/11/30 03:07:25;;;;;;;18.10;8.27;;;;;;;2.66;100.00;100506.06;10608389;27;20129;-78
2021/11/30 03:12:27;;;;;;;12.85;7.28;;;;;;;2.72;100.00;100500.34;10589570;27;20051;-77
2021/11/30 03:17:28;;;;;;;16.52;8.85;;;;;;;2.83;100.00;100480.34;10601805;27;20044;-77
2021/11/30 03:22:30;;;;;;;10.95;7.18;;;;;;;3.10;100.00;100476.31;10608504;27;20057;-77
2021/11/30 03:27:32;;;;;;;10.05;6.60;;;;;;;3.31;100.00;100460.94;10594736;27;20069;-77
2021/11/30 03:37:35;;;;;;;8.18;5.97;;;;;;;3.53;100.00;100431.94;10623453;27;20092;-79
2021/11/30 03:42:38;;;;;;;5.18;4.30;;;;;;;3.64;100.00;100430.63;10595177;27;20039;-77
2021/11/30 03:47:42;;;;;;;6.00;4.25;;;;;;;3.74;100.00;100419.00;10592444;27;20484;-78
2021/11/30 03:52:44;;;;;;;6.05;5.55;;;;;;;3.82;100.00;100401.41;10599155;27;20051;-77
2021/11/30 03:57:46;;;;;;;6.45;5.80;;;;;;;3.85;100.00;100401.47;10599030;27;20059;-77
2021/11/30 04:02:47;;;;;;;5.88;5.38;;;;;;;3.96;100.00;100388.25;10625011;27;20043;-76
2021/11/30 04:07:49;;;;;;;5.50;4.95;;;;;;;4.01;100.00;100380.72;10606828;27;20087;-78
2021/11/30 04:12:52;;;;;;;5.50;5.00;;;;;;;4.06;100.00;100383.44;10610637;27;20046;-78
2021/11/30 04:17:53;;;;;;;2.53;1.85;;;;;;;4.12;100.00;100371.72;10592962;27;20070;-77
2021/11/30 04:22:55;;;;;;;6.97;5.97;;;;;;;4.20;100.00;100348.94;10606566;27;20062;-77
2021/11/30 04:27:57;;;;;;;5.00;4.60;;;;;;;4.30;100.00;100350.09;10624144;27;20047;-78
2021/11/30 04:32:58;;;;;;;5.50;5.00;;;;;;;4.33;100.00;100186.34;10624048;27;20047;-78
2021/11/30 04:38:00;;;;;;;4.07;3.78;;;;;;;4.45;100.00;100191.81;10605654;27;20047;-77
2021/11/30 04:43:02;;;;;;;2.47;1.58;;;;;;;4.64;100.00;100177.81;10596174;27;20049;-77
2021/11/30 04:48:04;;;;;;;4.45;3.88;;;;;;;4.68;100.00;100170.28;10605687;27;20063;-78
2021/11/30 04:53:07;;;;;;;1.20;1.02;;;;;;;4.76;100.00;100167.91;10592923;27;20043;-78
2021/11/30 04:58:08;;;;;;;2.67;2.47;;;;;;;4.88;100.00;100149.44;10582341;27;20055;-76
2021/11/30 05:03:10;;;;;;;2.60;2.20;;;;;;;4.89;100.00;100139.25;10592681;27;20062;-77
2021/11/30 05:08:12;;;;;;;4.32;3.05;;;;;;;4.98;100.00;100128.34;10580777;27;20423;-77
2021/11/30 05:13:14;;;;;;;3.05;2.70;;;;;;;5.11;100.00;100132.09;10601045;27;20048;-76
2021/11/30 05:18:15;;;;;;;2.72;2.53;;;;;;;5.15;100.00;100128.75;10593109;27;20048;-76
2021/11/30 05:23:26;;;;;;;2.90;2.70;;;;;;;5.24;100.00;100129.88;10584361;27;20048;-77
2021/11/30 05:28:28;;;;;;;2.80;2.60;;;;;;;5.41;100.00;100125.16;10600737;27;20054;-76
2021/11/30 05:33:33;;;;;;;3.95;3.10;;;;;;;5.43;100.00;100109.78;10602321;27;20056;-77
2021/11/30 05:38:36;;;;;;;3.00;2.75;;;;;;;5.51;100.00;100115.97;10601596;27;20043;-77
2021/11/30 05:43:38;;;;;;;1.70;1.60;;;;;;;5.61;100.00;100112.75;10603077;27;20081;-77
2021/11/30 05:48:40;;;;;;;1.70;1.58;;;;;;;5.71;100.00;100121.56;10592597;27;20051;-77
2021/11/30 05:53:42;;;;;;;3.17;2.40;;;;;;;5.70;100.00;100122.38;10578138;28;20093;-77
2021/11/30 05:58:45;;;;;;;4.13;2.55;;;;;;;5.79;100.00;100123.47;10592496;28;20052;-76
2021/11/30 06:08:52;;;;;;;3.47;3.15;;;;;;;5.93;100.00;100120.38;10621241;28;20430;-77
2021/11/30 06:13:54;;;;;;;4.00;3.65;;;;;;;6.05;100.00;100102.66;10593303;27;20062;-77
2021/11/30 06:18:55;;;;;;;4.60;3.25;;;;;;;6.07;100.00;100104.44;10585604;28;20051;-76
2021/11/30 06:23:57;;;;;;;3.17;2.67;;;;;;;6.31;100.00;100095.47;10597315;27;20058;-77
2021/11/30 06:28:59;;;;;;;3.08;2.55;;;;;;;6.41;100.00;100089.69;10609913;27;20043;-76
2021/11/30 06:34:00;;;;;;;2.67;2.17;;;;;;;6.55;100.00;100085.66;10581984;27;20048;-77
2021/11/30 06:39:04;;;;;;;2.28;1.83;;;;;;;6.66;100.00;100085.88;10600919;27;20101;-76
2021/11/30 06:44:06;;;;;;;4.57;2.90;;;;;;;6.77;100.00;100078.34;10602177;27;20043;-76
2021/11/30 06:49:07;;;;;;;3.28;2.55;;;;;;;6.92;100.00;100065.78;10596690;27;20054;-76
2021/11/30 06:54:09;;;;;;;1.15;1.02;;;;;;;7.02;100.00;100061.63;10600059;27;20059;-75
2021/11/30 06:59:11;;;;;;;2.47;2.13;;;;;;;7.05;100.00;100064.25;10583877;27;20510;-76
2021/11/30 07:04:12;;;;;;;4.25;3.13;;;;;;;7.14;100.00;100069.53;10602655;27;20050;-76
2021/11/30 07:09:22;;;;;;;7.88;3.33;;;;;;;7.20;100.00;100089.34;10627619;27;20059;-76
2021/11/30 07:14:26;;;;;;;5.13;4.32;;;;;;;7.16;100.00;100096.16;10606324;27;20517;-75
2021/11/30 07:19:30;;;;;;;5.90;3.92;;;;;;;7.29;100.00;100095.50;10598761;27;20043;-76
2021/11/30 07:24:32;;;;;;;0.93;0.77;;;;;;;7.44;100.00;100097.47;10584614;27;20513;-78
2021/11/30 07:29:33;;;;;;;7.40;4.18;;;;;;;7.42;100.00;100107.72;10600070;27;20158;-76
2021/11/30 07:34:37;;;;;;;6.32;3.63;;;;;;;7.46;100.00;100116.34;10607994;27;20066;-76
2021/11/30 07:39:39;;;;;;;10.23;4.63;;;;;;;7.44;100.00;100110.34;10597066;27;20047;-76
2021/11/30 07:44:40;;;;;;;11.43;5.07;;;;;;;7.43;100.00;100106.88;10604571;27;20040;-77
2021/11/30 07:49:42;;;;;;;10.63;2.72;;;;;;;7.48;100.00;100106.06;10577822;27;20526;-76
2021/11/30 07:54:45;;;;;;;7.00;3.50;;;;;;;7.42;100.00;100115.44;10574232;27;20059;-76
2021/11/30 07:59:47;;;;;;;5.50;2.67;;;;;;;7.41;100.00;100105.13;10590472;27;20047;-76
2021/11/30 08:04:49;;;;;;;6.38;3.70;;;;;;;7.58;100.00;100110.53;10609300;27;20043;-76
2021/11/30 08:09:51;;;;;;;7.07;4.07;;;;;;;7.54;100.00;100116.47;10613600;27;20057;-76
2021/11/30 08:14:53;;;;;;;5.10;3.50;;;;;;;7.58;100.00;100121.69;10593878;27;20047;-77
2021/11/30 08:19:54;;;;;;;7.70;3.35;;;;;;;7.53;100.00;100114.72;10606806;27;20078;-77
2021/11/30 08:24:56;;;;;;;7.90;3.47;;;;;;;7.58;100.00;100106.25;10603648;27;20050;-77
2021/11/30 08:29:58;;;;;;;8.32;2.38;;;;;;;7.69;100.00;100103.81;10605866;27;20407;-77
2021/11/30 08:35:00;;;;;;;9.02;3.65;;;;;;;7.72;100.00;100111.59;10583073;27;20071;-75
2021/11/30 08:40:04;;;;;;;8.95;2.92;;;;;;;7.67;100.00;100102.94;10587603;27;20053;-76
2021/11/30 08:45:07;;;;;;;3.78;2.28;;;;;;;7.73;100.00;100104.75;10621623;27;20067;-77
2021/11/30 08:50:14;;;;;;;2.50;2.05;;;;;;;7.79;100.00;100103.13;10604395;27;20053;-77
2021/11/30 08:55:17;;;;;;;9.93;2.38;;;;;;;7.88;100.00;100105.81;10601073;27;20494;-76
2021/11/30 09:00:26;;;;;;;2.40;1.90;;;;;;;7.95;100.00;100091.31;10611377;27;20051;-76
2021/11/30 09:05:28;;;;;;;6.43;3.17;;;;;;;7.89;100.00;100086.09;10577874;28;20056;-76
2021/11/30 09:10:30;;;;;;;3.75;2.20;;;;;;;8.00;100.00;100096.50;10592267;27;20060;-76
2021/11/30 09:15:32;;;;;;;1.17;0.60;;;;;;;8.01;100.00;100093.97;10594599;27;20084;-75
2021/11/30 09:20:35;;;;;;;2.45;1.55;;;;;;;8.03;100.00;100096.56;10577743;28;20051;-75
2021/11/30 09:25:37;;;;;;;2.25;0.90;;;;;;;8.15;100.00;100099.28;10606366;27;20387;-77
2021/11/30 09:30:40;;;;;;;4.55;2.08;;;;;;;8.11;100.00;100100.97;10575463;28;20050;-77
2021/11/30 09:35:43;;;;;;;3.38;1.85;;;;;;;8.13;100.00;100114.72;10592309;27;20062;-76
2021/11/30 09:40:47;;;;;;;3.63;1.77;;;;;;;8.12;100.00;100120.75;10576275;28;20059;-75
2021/11/30 09:46:02;;;;;;;3.55;1.42;;;;;;;8.20;100.00;100121.69;10584487;27;20536;-75
2021/11/30 09:51:05;;;;;;;0.98;0.88;;;;;;;8.18;100.00;100128.53;10592225;27;20428;-75
2021/11/30 09:56:07;;;;;;;2.38;1.30;;;;;;;8.19;100.00;100129.41;10582444;27;20059;-74
2021/11/30 10:01:11;;;;;;;4.10;1.42;;;;;;;8.25;100.00;100129.47;10594147;28;20050;-76
2021/11/30 10:06:14;;;;;;;1.55;1.10;;;;;;;8.22;100.00;100132.91;10601424;28;20080;-76
2021/11/30 10:11:28;;;;;;;2.85;1.40;;;;;;;8.21;100.00;100145.72;10587054;28;20044;-74
2021/11/30 10:16:29;;;;;;;2.15;0.50;;;;;;;8.01;100.00;100148.06;10596994;28;20066;-74
2021/11/30 10:21:31;;;;;;;1.50;0.70;;;;;;;7.89;100.00;100146.19;10600674;28;20393;-73
2021/11/30 10:26:41;;;;;;;0.20;0.20;;;;;;;7.82;100.00;100146.91;10582880;28;20071;-75
2021/11/30 10:31:46;;;;;;;0.52;0.28;;;;;;;7.76;100.00;100162.28;10575477;28;20230;-75
2021/11/30 10:36:52;;;;;;;0.30;0.30;;;;;;;7.72;100.00;100164.81;10582346;28;20058;-74
2021/11/30 10:42:22;;;;;;;1.73;0.40;;;;;;;7.72;100.00;100162.22;10568280;28;20569;-75
2021/11/30 10:47:26;;;;;;;0.30;0.30;;;;;;;7.73;100.00;100177.69;10549694;28;20055;-74
2021/11/30 10:52:30;;;;;;;1.63;0.90;;;;;;;7.63;100.00;100179.25;10582846;28;20066;-75
2021/11/30 10:57:32;;;;;;;0.70;0.60;;;;;;;7.51;100.00;100175.63;10555495;28;20056;-75
2021/11/30 11:03:07;;;;;;;0.70;0.60;;;;;;;7.47;100.00;100195.28;10558499;28;20054;-75
2021/11/30 11:08:16;;;;;;;1.20;0.70;;;;;;;7.38;100.00;100195.16;10534344;28;20056;-75
2021/11/30 11:13:28;;;;;;;1.10;0.47;;;;;;;7.35;100.00;100179.63;10571875;28;20039;-75
2021/11/30 11:18:33;;;;;;;2.20;0.38;;;;;;;7.34;100.00;100183.06;10548484;28;20714;-75
2021/11/30 11:23:35;;;;;;;2.65;0.70;;;;;;;7.33;100.00;100186.47;10562821;28;20134;-75
2021/11/30 11:28:37;;;;;;;2.20;0.93;;;;;;;7.30;100.00;100186.41;10544540;28;20052;-76
2021/11/30 11:33:39;;;;;;;4.65;1.13;;;;;;;7.32;100.00;100198.47;10566727;28;20415;-74
2021/11/30 11:38:41;;;;;;;2.35;1.20;;;;;;;7.31;100.00;100198.44;10565797;28;20044;-75
2021/11/30 11:43:43;;;;;;;0.75;0.68;;;;;;;7.29;100.00;100190.69;10581893;28;20058;-74
2021/11/30 11:48:53;;;;;;;6.15;1.27;;;;;;;7.29;100.00;100188.13;10556063;28;20061;-76
2021/11/30 11:53:56;;;;;;;2.13;1.45;;;;;;;7.30;100.00;100186.41;10567721;28;20051;-75
2021/11/30 11:59:18;;;;;;;3.50;1.20;;;;;;;7.30;100.00;100188.97;10601838;27;20043;-76
2021/11/30 12:04:20;;;;;;;1.70;0.90;;;;;;;7.31;100.00;100180.41;10626223;27;20513;-75
2021/11/30 12:09:39;;;;;;;3.30;0.80;;;;;;;7.32;100.00;100177.91;10593660;27;20055;-75
2021/11/30 12:14:49;;;;;;;1.00;0.90;;;;;;;7.33;100.00;100184.78;10582045;27;20043;-75
2021/11/30 12:19:56;;;;;;;5.75;1.50;;;;;;;7.36;100.00;100173.66;10608452;27;20071;-75
2021/11/30 12:24:58;;;;;;;4.38;1.20;;;;;;;7.36;100.00;100186.50;10625979;27;20050;-75
2021/11/30 12:29:59;;;;;;;1.75;0.95;;;;;;;7.35;100.00;100183.06;10602180;27;20053;-75
2021/11/30 12:35:06;;;;;;;3.92;1.38;;;;;;;7.39;100.00;100173.72;10626072;27;20153;-74
2021/11/30 12:40:14;;;;;;;1.17;1.00;;;;;;;7.40;100.00;100167.72;10607798;27;20047;-75
2021/11/30 12:45:42;;;;;;;1.33;1.20;;;;;;;7.41;100.00;100166.88;10607956;27;20058;-76
2021/11/30 12:50:45;;;;;;;2.38;1.25;;;;;;;7.39;100.00;100164.28;10595416;27;20078;-75
2021/11/30 12:55:53;;;;;;;1.60;1.23;;;;;;;7.39;100.00;100168.56;10587516;27;20059;-76
2021/11/30 13:01:21;;;;;;;4.88;1.35;;;;;;;7.37;100.00;100165.09;10606775;27;20108;-75
2021/11/30 13:06:23;;;;;;;1.75;0.98;;;;;;;7.40;100.00;100172.88;10581550;28;20093;-75
2021/11/30 13:11:28;;;;;;;2.00;1.00;;;;;;;7.40;100.00;100176.31;10605406;27;20058;-75
2021/11/30 13:16:32;;;;;;;1.00;1.00;;;;;;;7.36;100.00;100181.38;10605773;27;20049;-75
2021/11/30 13:21:37;;;;;;;0.63;0.60;;;;;;;7.33;100.00;100165.91;10606284;27;20047;-76
2021/11/30 13:26:41;;;;;;;0.63;0.63;;;;;;;7.33;100.00;100168.47;10624073;27;20134;-76
2021/11/30 13:31:45;;;;;;;1.42;0.50;;;;;;;7.28;100.00;100158.09;10610847;27;20498;-76
2021/11/30 13:36:47;;;;;;;0.70;0.70;;;;;;;7.33;100.00;100171.03;10606047;27;20344;-76
2021/11/30 13:41:48;;;;;;;0.85;0.73;;;;;;;7.33;100.00;100182.19;10595015;27;20049;-76
2021/11/30 13:46:51;;;;;;;0.60;0.60;;;;;;;7.33;100.00;100183.91;10578483;28;20048;-76
2021/11/30 13:51:52;;;;;;;1.48;0.90;;;;;;;7.33;100.00;100195.06;10600731;27;20051;-77
2021/11/30 13:57:04;;;;;;;0.57;0.57;;;;;;;7.31;100.00;100195.84;10576613;28;20062;-76
2021/11/30 14:02:06;;;;;;;1.00;0.88;;;;;;;7.31;100.00;100193.28;10591825;28;20051;-77
2021/11/30 14:07:07;;;;;;;1.83;0.90;;;;;;;7.27;100.00;100187.25;10564765;28;20558;-76
2021/11/30 14:12:12;;;;;;;1.13;1.00;;;;;;;7.24;100.00;100189.75;10588191;28;20058;-77
2021/11/30 14:17:25;;;;;;;0.85;0.77;;;;;;;7.27;100.00;100204.38;10602550;28;20059;-77
2021/11/30 14:22:36;;;;;;;1.10;1.05;;;;;;;7.27;100.00;100207.81;10602746;28;20085;-76
2021/11/30 14:27:47;;;;;;;1.70;1.10;;;;;;;7.26;100.00;100208.66;10611128;28;20065;-79
2021/11/30 14:33:11;;;;;;;1.30;1.20;;;;;;;7.25;100.00;100224.91;10600820;28;20043;-76
2021/11/30 14:38:23;;;;;;;2.10;1.58;;;;;;;7.26;100.00;100230.91;10600275;27;20059;-76
2021/11/30 14:43:31;;;;;;;1.75;1.52;;;;;;;7.23;100.00;100239.47;10619507;27;20058;-76
2021/11/30 14:48:38;;;;;;;2.63;2.42;;;;;;;7.22;100.00;100245.44;10597492;27;20055;-76
2021/11/30 14:53:43;;;;;;;2.13;2.03;;;;;;;7.24;100.00;100260.91;10593554;27;20048;-76
2021/11/30 14:58:48;;;;;;;3.28;2.63;;;;;;;7.22;100.00;100255.75;10588780;27;20474;-76
2021/11/30 15:04:05;;;;;;;3.25;2.72;;;;;;;7.23;100.00;100256.59;10588233;27;20040;-75
2021/11/30 15:09:17;;;;;;;2.63;2.42;;;;;;;7.23;100.00;100246.31;10582754;28;20062;-76
2021/11/30 15:14:28;;;;;;;3.97;3.00;;;;;;;7.22;100.00;100248.03;10608036;27;20043;-77
2021/11/30 15:19:41;;;;;;;3.03;2.60;;;;;;;7.23;100.00;100261.75;10594366;27;20078;-76
2021/11/30 15:24:47;;;;;;;3.80;3.35;;;;;;;7.22;100.00;100258.31;10588891;27;20051;-77
2021/11/30 15:29:51;;;;;;;;;;;;;;;7.20;100.00;100256.53;10608421;27;20062;-77
2021/11/30 15:34:53;;;;;;;4.30;3.90;;;;;;;7.21;100.00;100251.44;10598094;27;19964;-76
2021/11/30 15:39:55;;;;;;;5.32;4.38;;;;;;;7.21;100.00;100246.31;10585003;27;20146;-76
2021/11/30 15:44:56;;;;;;;6.07;4.45;;;;;;;7.21;100.00;100241.16;10606699;27;20047;-76
2021/11/30 15:49:58;;;;;;;5.00;4.32;;;;;;;7.17;100.00;100232.50;10594961;27;20059;-77
2021/11/30 15:55:10;;;;;;;6.25;5.05;;;;;;;7.20;100.00;100230.81;10607072;27;20140;-77
2021/11/30 16:00:13;;;;;;;5.80;4.60;;;;;;;7.25;100.00;100235.19;10619757;27;20050;-77
2021/11/30 16:05:15;;;;;;;7.13;5.28;;;;;;;7.22;100.00;100242.00;10577978;27;20050;-77
2021/11/30 16:10:16;;;;;;;7.80;5.78;;;;;;;7.17;100.00;100229.94;10595754;27;20142;-77
2021/11/30 16:15:18;;;;;;;5.68;4.18;;;;;;;7.18;100.00;100234.22;10578917;27;20044;-76
2021/11/30 16:20:19;;;;;;;6.43;5.72;;;;;;;7.18;100.00;100246.22;10600337;27;20130;-77
2021/11/30 16:25:21;;;;;;;4.80;4.22;;;;;;;7.20;100.00;100248.81;10586346;27;20054;-76
2021/11/30 16:30:23;;;;;;;5.32;4.80;;;;;;;7.17;100.00;100254.78;10583440;27;20051;-77
2021/11/30 16:35:24;;;;;;;5.95;5.32;;;;;;;7.17;100.00;100249.63;10603890;27;20047;-77
2021/11/30 16:40:26;;;;;;;8.32;6.35;;;;;;;7.16;100.00;100253.06;10606679;27;20063;-77
2021/11/30 16:45:28;;;;;;;7.65;6.18;;;;;;;7.17;100.00;100242.78;10611608;27;20055;-77
2021/11/30 16:50:40;;;;;;;6.07;5.38;;;;;;;7.16;100.00;100245.34;10595391;27;20051;-77
2021/11/30 16:55:42;;;;;;;8.90;7.05;;;;;;;7.14;100.00;100245.28;10600938;27;20059;-77
2021/11/30 17:00:43;;;;;;;8.98;7.72;;;;;;;7.13;100.00;100235.84;10590284;27;20303;-77
2021/11/30 17:05:45;;;;;;;12.85;7.75;;;;;;;7.13;100.00;100238.41;10585570;27;20101;-77
2021/11/30 17:10:56;;;;;;;10.88;8.18;;;;;;;7.12;100.00;100231.53;10618399;27;20628;-76
2021/11/30 17:15:58;;;;;;;13.85;9.52;;;;;;;7.12;100.00;100210.97;10590319;27;20051;-76
2021/11/30 17:21:01;;;;;;;17.23;12.10;;;;;;;7.12;100.00;100210.97;10601537;27;20069;-76
2021/11/30 17:26:03;;;;;;;17.20;11.88;;;;;;;7.13;100.00;100212.69;10603646;27;20050;-76
2021/11/30 17:31:06;;;;;;;30.13;16.73;;;;;;;7.15;100.00;100210.19;10599044;27;20491;-78
2021/11/30 17:36:08;;;;;;;30.50;19.20;;;;;;;7.21;100.00;100199.13;10592547;27;20054;-79
2021/11/30 17:41:11;;;;;;;36.22;21.17;;;;;;;7.23;100.00;100202.59;10607561;27;20400;-78
2021/11/30 17:46:13;;;;;;;37.65;19.90;;;;;;;7.28;100.00;100195.81;10579166;27;20043;-78
2021/11/30 17:51:18;;;;;;;41.03;21.73;;;;;;;7.32;100.00;100192.47;10593581;27;20047;-77
2021/11/30 17:56:20;;;;;;;41.00;21.07;;;;;;;7.35;100.00;100187.34;10596204;27;20134;-78
2021/11/30 18:01:22;;;;;;;40.00;23.52;;;;;;;7.35;100.00;100189.94;10595121;28;20142;-77
2021/11/30 18:06:24;;;;;;;37.80;23.15;;;;;;;7.39;100.00;100184.00;10619035;28;20059;-77
2021/11/30 18:11:26;;;;;;;30.33;18.95;;;;;;;7.35;100.00;100188.22;10604682;27;20047;-76
2021/11/30 18:16:28;;;;;;;41.72;23.20;;;;;;;7.49;100.00;100177.28;10610253;27;20165;-76
2021/11/30 18:21:30;;;;;;;39.92;22.65;;;;;;;7.41;100.00;100170.31;10599395;27;20464;-77
2021/11/30 18:26:32;;;;;;;38.45;22.13;;;;;;;7.53;100.00;100159.34;10585048;27;20058;-77
2021/11/30 18:31:34;;;;;;;44.95;26.58;;;;;;;7.49;100.00;100152.44;10622739;27;20074;-77
2021/11/30 18:36:35;;;;;;;47.78;25.05;;;;;;;7.53;100.00;100146.47;10608245;27;20098;-77
2021/11/30 18:41:38;;;;;;;39.13;19.92;;;;;;;7.61;100.00;100136.31;10605327;27;20059;-77
2021/11/30 18:46:40;;;;;;;19.50;14.00;;;;;;;7.84;100.00;100142.66;10594904;27;20040;-78
2021/11/30 18:51:52;;;;;;;18.33;12.32;;;;;;;7.90;100.00;100140.19;10599172;27;20051;-77
2021/11/30 18:56:53;;;;;;;9.93;8.80;;;;;;;8.00;100.00;100130.00;10612156;27;20219;-78
2021/11/30 19:01:59;;;;;;;7.68;5.90;;;;;;;8.04;100.00;100127.47;10601120;27;20054;-77
2021/11/30 19:07:02;;;;;;;6.95;5.13;;;;;;;8.09;100.00;100118.09;10627580;27;20047;-76
2021/11/30 19:12:04;;;;;;;11.20;8.10;;;;;;;8.07;100.00;100124.09;10620895;27;20043;-77
2021/11/30 19:17:06;;;;;;;9.35;7.28;;;;;;;8.11;100.00;100121.59;10587051;27;20062;-77
2021/11/30 19:22:09;;;;;;;9.63;6.90;;;;;;;8.10;100.00;100112.09;10591903;27;20052;-75
2021/11/30 19:27:11;;;;;;;14.20;8.45;;;;;;;8.12;100.00;100109.56;10584543;28;20169;-78
2021/11/30 19:32:13;;;;;;;11.10;5.85;;;;;;;8.15;100.00;100100.16;10605576;27;20061;-76
2021/11/30 19:37:20;;;;;;;15.85;9.60;;;;;;;8.16;100.00;100089.00;10594330;27;20048;-77
2021/11/30 19:42:23;;;;;;;15.35;9.48;;;;;;;8.19;100.00;100088.19;10596250;27;20052;-75
2021/11/30 19:47:26;;;;;;;16.15;9.90;;;;;;;8.14;100.00;100094.97;10587873;27;20529;-77
2021/11/30 19:52:27;;;;;;;5.07;3.72;;;;;;;8.26;100.00;100079.66;10601364;27;20043;-76
2021/11/30 19:57:31;;;;;;;16.80;11.50;;;;;;;8.23;100.00;100059.91;10581498;28;20487;-76
2021/11/30 20:07:54;;;;;;;16.08;7.50;;;;;;;8.27;100.00;100065.06;10620421;27;20093;-78
2021/11/30 20:12:57;;;;;;;21.70;13.63;;;;;;;8.24;100.00;100053.91;10616814;27;20039;-76
2021/11/30 20:18:02;;;;;;;27.92;17.13;;;;;;;8.26;100.00;100043.59;10606401;27;20444;-76
2021/11/30 20:23:06;;;;;;;23.63;15.90;;;;;;;8.24;100.00;100037.56;10605676;27;20043;-77
2021/11/30 20:28:08;;;;;;;24.80;14.43;;;;;;;8.28;100.00;100033.28;10605451;27;20069;-77
2021/11/30 20:33:10;;;;;;;23.85;15.98;;;;;;;8.22;100.00;100022.09;10616999;27;20039;-77
2021/11/30 20:43:41;;;;;;;17.17;11.38;;;;;;;8.22;100.00;100001.50;10623146;27;20126;-76
2021/11/30 20:48:42;;;;;;;11.88;7.18;;;;;;;8.26;100.00;99992.06;10600584;27;20127;-75
2021/11/30 20:53:46;;;;;;;24.27;12.43;;;;;;;8.25;100.00;99977.47;10603890;27;20039;-77
2021/11/30 20:58:50;;;;;;;17.98;10.25;;;;;;;8.23;100.00;99974.00;10585731;27;20040;-75
2021/11/30 21:03:53;;;;;;;14.00;8.88;;;;;;;8.24;100.00;99968.88;10579687;28;20050;-76
2021/11/30 21:08:54;;;;;;;23.55;14.07;;;;;;;8.20;100.00;99953.34;10584028;27;20138;-77
2021/11/30 21:13:56;;;;;;;20.23;13.82;;;;;;;8.19;100.00;99949.06;10587901;27;20129;-77
2021/11/30 21:19:05;;;;;;;24.55;14.98;;;;;;;8.19;100.00;99949.06;10622251;27;20089;-76
2021/11/30 21:24:08;;;;;;;25.98;16.23;;;;;;;8.13;100.00;99929.25;10604264;27;20134;-75
2021/11/30 21:29:10;;;;;;;27.17;17.10;;;;;;;8.09;100.00;99917.19;10590121;27;20047;-76
2021/11/30 21:34:12;;;;;;;27.00;16.88;;;;;;;8.08;100.00;99912.03;10607169;27;20521;-76
2021/11/30 21:39:14;;;;;;;27.13;16.92;;;;;;;8.08;100.00;99907.75;10591613;27;20051;-77
2021/11/30 21:44:15;;;;;;;25.48;16.65;;;;;;;8.08;100.00;99896.56;10581769;27;20051;-77
2021/11/30 21:49:18;;;;;;;26.70;17.70;;;;;;;8.07;100.00;99888.00;10578442;28;20059;-76
2021/11/30 21:54:22;;;;;;;24.17;16.75;;;;;;;8.06;100.00;99870.81;10581898;28;20057;-77
2021/11/30 21:59:27;;;;;;;25.45;16.95;;;;;;;8.06;100.00;99859.66;10582480;28;20043;-77
2021/11/30 22:04:29;;;;;;;29.10;18.83;;;;;;;8.12;100.00;99852.84;10578490;28;20063;-75
2021/11/30 22:09:35;;;;;;;24.85;17.67;;;;;;;8.09;100.00;99834.75;10603583;28;20058;-76
2021/11/30 22:14:37;;;;;;;27.23;17.90;;;;;;;8.11;100.00;99829.59;10620622;28;20506;-77
2021/11/30 22:19:43;;;;;;;33.97;19.92;;;;;;;8.10;100.00;99813.28;10586529;28;20051;-76
2021/11/30 22:24:46;;;;;;;25.45;19.80;;;;;;;8.09;100.00;99790.97;10568799;28;20066;-77
2021/11/30 22:29:48;;;;;;;27.80;19.40;;;;;;;8.16;100.00;99786.72;10602261;28;20132;-76
2021/11/30 22:34:49;;;;;;;33.40;21.30;;;;;;;8.16;100.00;99772.13;10588769;28;20410;-76
2021/11/30 22:39:51;;;;;;;28.45;19.75;;;;;;;8.16;100.00;99746.38;10607475;28;20047;-76
2021/11/30 22:44:56;;;;;;;32.40;21.75;;;;;;;8.17;100.00;99730.09;10565368;28;20059;-77
2021/11/30 22:49:57;;;;;;;32.58;21.38;;;;;;;8.18;100.00;99729.22;10602350;28;20061;-76
2021/11/30 22:55:02;;;;;;;36.88;22.65;;;;;;;8.23;100.00;99713.81;10588517;27;20055;-76
2021/11/30 23:00:13;;;;;;;37.22;20.13;;;;;;;8.21;100.00;99698.31;10608391;27;20047;-76
2021/11/30 23:05:15;;;;;;;38.30;23.35;;;;;;;8.28;100.00;99695.75;10601526;27;20055;-76
2021/11/30 23:10:16;;;;;;;44.33;23.50;;;;;;;8.22;100.00;99689.75;10609889;27;20130;-76
2021/11/30 23:15:21;;;;;;;34.58;20.25;;;;;;;8.32;100.00;99682.91;10627690;27;20051;-76
2021/11/30 23:20:31;;;;;;;38.88;21.92;;;;;;;8.30;100.00;99678.63;10609011;27;20078;-76
2021/11/30 23:25:41;;;;;;;32.28;18.52;;;;;;;8.28;100.00;99664.84;10599410;27;20048;-76
2021/11/30 23:30:49;;;;;;;33.65;18.35;;;;;;;8.27;100.00;99647.66;10583531;28;20055;-75
2021/11/30 23:35:55;;;;;;;37.30;20.48;;;;;;;8.34;100.00;99636.53;10611754;27;20046;-76
2021/11/30 23:40:56;;;;;;;35.75;23.17;;;;;;;8.32;100.00;99621.06;10588208;27;20470;-76
2021/11/30 23:45:58;;;;;;;38.72;20.20;;;;;;;8.37;100.00;99605.66;10611739;27;20051;-76